createdAt,value
2019-01-08T00:02:15.928Z,98382.73
2019-01-08T00:05:03.511Z,98395.66
2019-01-08T00:07:50.927Z,98383.95
2019-01-08T00:10:37.989Z,98369.98
2019-01-08T00:13:25.421Z,98372.88
2019-01-08T00:16:12.464Z,98366.41
2019-01-08T00:18:59.517Z,98352.77
2019-01-08T00:21:46.365Z,98343.77
2019-01-08T00:24:33.419Z,98344.36
2019-01-08T00:27:20.448Z,98350.03
2019-01-08T00:30:08.277Z,98335.06
2019-01-08T00:32:55.510Z,98332.95
2019-01-08T00:35:42.829Z,98321.94
2019-01-08T00:38:29.847Z,98319.22
2019-01-08T00:41:16.950Z,98319.95
2019-01-08T00:44:04.127Z,98315.80
2019-01-08T00:46:51.169Z,98309.39
2019-01-08T00:49:38.257Z,98298.59
2019-01-08T00:52:25.420Z,98292.97
2019-01-08T00:55:12.588Z,98282.58
2019-01-08T00:57:59.935Z,98275.39
2019-01-08T01:00:47.156Z,98279.25
2019-01-08T01:03:34.490Z,98264.03
2019-01-08T01:06:21.829Z,98260.20
2019-01-08T01:09:09.181Z,98256.40
2019-01-08T01:11:56.563Z,98245.80
2019-01-08T01:14:43.679Z,98235.25
2019-01-08T01:17:30.904Z,98231.99
2019-01-08T01:20:18.074Z,98232.34
2019-01-08T01:23:05.228Z,98226.67
2019-01-08T01:25:52.442Z,98227.55
2019-01-08T01:28:39.613Z,98214.46
2019-01-08T01:31:26.945Z,98203.27
2019-01-08T01:34:14.060Z,98195.19
2019-01-08T01:37:01.730Z,98191.33
2019-01-08T01:39:48.682Z,98206.75
2019-01-08T01:42:36.079Z,98193.34
2019-01-08T01:45:23.450Z,98191.16
2019-01-08T01:48:10.990Z,98189.98
2019-01-08T01:50:58.048Z,98190.95
2019-01-08T01:53:45.290Z,98165.12
2019-01-08T01:56:32.726Z,98145.61
2019-01-08T01:59:20.066Z,98126.34
2019-01-08T02:02:07.506Z,98126.61
2019-01-08T02:04:55.382Z,98133.73
2019-01-08T02:07:42.540Z,98137.12
2019-01-08T02:10:29.767Z,98128.44
2019-01-08T02:13:17.064Z,98116.38
2019-01-08T02:16:04.372Z,98109.23
2019-01-08T02:18:51.633Z,98102.73
2019-01-08T02:21:38.991Z,98083.30
2019-01-08T02:24:26.147Z,98093.95
2019-01-08T02:27:13.581Z,98077.63
2019-01-08T02:30:00.601Z,98078.34
2019-01-08T02:32:47.714Z,98082.61
2019-01-08T02:35:34.846Z,98086.00
2019-01-08T02:38:22.363Z,98077.61
2019-01-08T02:41:09.521Z,98077.04
2019-01-08T02:43:56.614Z,98075.55
2019-01-08T02:46:44.330Z,98073.13
2019-01-08T02:49:31.603Z,98078.76
2019-01-08T02:52:18.807Z,98080.28
2019-01-08T02:55:06.374Z,98087.39
2019-01-08T02:57:53.503Z,98091.14
2019-01-08T03:00:40.531Z,98092.06
2019-01-08T03:03:27.873Z,98088.80
2019-01-08T03:06:15.153Z,98081.55
2019-01-08T03:09:02.230Z,98083.01
2019-01-08T03:11:49.336Z,98075.67
2019-01-08T03:14:36.860Z,98073.05
2019-01-08T03:17:23.939Z,98073.72
2019-01-08T03:20:11.090Z,98082.08
2019-01-08T03:22:58.416Z,98066.22
2019-01-08T03:25:45.563Z,98069.31
2019-01-08T03:28:32.918Z,98064.26
2019-01-08T03:31:20.225Z,98065.87
2019-01-08T03:34:07.046Z,98048.19
2019-01-08T03:36:54.378Z,98041.66
2019-01-08T03:39:41.164Z,98032.49
2019-01-08T03:42:28.794Z,98018.73
2019-01-08T03:45:15.845Z,98012.19
2019-01-08T03:48:02.998Z,98006.01
2019-01-08T03:50:50.350Z,97995.84
2019-01-08T03:53:37.585Z,98002.39
2019-01-08T03:56:24.669Z,97988.31
2019-01-08T03:59:11.834Z,97984.24
2019-01-08T04:01:59.125Z,97977.55
2019-01-08T04:04:46.216Z,97972.12
2019-01-08T04:07:33.277Z,97970.00
2019-01-08T04:10:20.507Z,97965.23
2019-01-08T04:13:07.803Z,97958.39
2019-01-08T04:15:55.126Z,97934.33
2019-01-08T04:18:42.293Z,97939.27
2019-01-08T04:21:29.473Z,97933.35
2019-01-08T04:24:16.832Z,97942.51
2019-01-08T04:27:04.212Z,97937.39
2019-01-08T04:29:51.591Z,97933.14
2019-01-08T04:32:38.364Z,97941.48
2019-01-08T04:35:25.788Z,97941.19
2019-01-08T04:38:13.247Z,97923.70
2019-01-08T04:41:00.539Z,97912.09
2019-01-08T04:43:47.944Z,97895.09
2019-01-08T04:46:34.832Z,97901.97
2019-01-08T04:49:22.190Z,97900.62
2019-01-08T04:52:09.217Z,97897.16
2019-01-08T04:54:56.322Z,97896.69
2019-01-08T04:57:43.897Z,97885.53
2019-01-08T05:00:31.250Z,97873.48
2019-01-08T05:03:18.392Z,97865.80
2019-01-08T05:06:08.306Z,97861.09
2019-01-08T05:08:55.496Z,97847.67
2019-01-08T05:11:42.794Z,97843.86
2019-01-08T05:14:30.069Z,97856.83
2019-01-08T05:17:17.230Z,97842.15
2019-01-08T05:20:06.444Z,97848.36
2019-01-08T05:22:53.726Z,97844.71
2019-01-08T05:25:40.856Z,97833.56
2019-01-08T05:28:28.201Z,97831.64
2019-01-08T05:31:15.316Z,97834.25
2019-01-08T05:34:02.650Z,97832.81
2019-01-08T05:36:49.752Z,97825.58
2019-01-08T05:39:36.803Z,97820.27
2019-01-08T05:42:23.644Z,97820.89
2019-01-08T05:45:10.974Z,97787.36
2019-01-08T05:47:58.005Z,97784.52
2019-01-08T05:50:45.059Z,97785.97
2019-01-08T05:53:32.519Z,97780.06
2019-01-08T05:56:20.003Z,97767.22
2019-01-08T05:59:07.431Z,97766.41
2019-01-08T06:01:54.356Z,97761.17
2019-01-08T06:04:42.156Z,97760.99
2019-01-08T06:07:29.436Z,97757.82
2019-01-08T06:10:16.660Z,97743.02
2019-01-08T06:13:03.958Z,97740.94
2019-01-08T06:15:51.213Z,97729.47
2019-01-08T06:18:38.025Z,97732.99
2019-01-08T06:21:25.338Z,97719.16
2019-01-08T06:24:14.757Z,97712.48
2019-01-08T06:27:02.340Z,97708.13
2019-01-08T06:29:49.984Z,97697.67
2019-01-08T06:32:37.442Z,97706.18
2019-01-08T06:35:24.840Z,97695.34
2019-01-08T06:38:11.838Z,97690.46
2019-01-08T06:40:58.932Z,97693.00
2019-01-08T06:43:46.073Z,97691.56
2019-01-08T06:46:33.325Z,97690.52
2019-01-08T06:49:20.433Z,97694.35
2019-01-08T06:52:07.542Z,97693.14
2019-01-08T06:54:54.720Z,97688.66
2019-01-08T06:57:42.039Z,97680.16
2019-01-08T07:00:33.452Z,97679.05
2019-01-08T07:03:18.457Z,97685.30
2019-01-08T07:06:05.858Z,97695.97
2019-01-08T07:08:52.899Z,97691.91
2019-01-08T07:11:40.015Z,97676.16
2019-01-08T07:14:27.507Z,97670.66
2019-01-08T07:17:14.636Z,97671.45
2019-01-08T07:20:01.931Z,97667.52
2019-01-08T07:22:49.268Z,97674.09
2019-01-08T07:25:42.094Z,97687.36
2019-01-08T07:28:25.357Z,97688.03
2019-01-08T07:31:12.530Z,97680.89
2019-01-08T07:33:59.700Z,97679.80
2019-01-08T07:36:47.151Z,97679.30
2019-01-08T07:39:34.223Z,97681.45
2019-01-08T07:42:21.584Z,97678.31
2019-01-08T07:45:09.029Z,97676.89
2019-01-08T07:47:56.049Z,97675.31
2019-01-08T07:50:43.102Z,97674.68
2019-01-08T07:53:30.097Z,97678.41
2019-01-08T07:56:17.387Z,97495.01
2019-01-08T07:59:04.790Z,97660.95
2019-01-08T08:01:52.249Z,97657.66
2019-01-08T08:04:47.309Z,97649.19
2019-01-08T08:07:27.813Z,97638.20
2019-01-08T08:10:15.170Z,97630.56
2019-01-08T08:13:02.305Z,97628.33
2019-01-08T08:15:49.680Z,97625.72
2019-01-08T08:18:36.703Z,97619.13
2019-01-08T08:21:23.893Z,97611.64
2019-01-08T08:24:10.661Z,97600.05
2019-01-08T08:26:58.086Z,97597.94
2019-01-08T08:29:45.487Z,97598.17
2019-01-08T08:32:32.550Z,97594.78
2019-01-08T08:35:19.846Z,97587.81
2019-01-08T08:38:07.242Z,97590.31
2019-01-08T08:40:54.499Z,97594.35
2019-01-08T08:43:41.802Z,97584.61
2019-01-08T08:46:29.122Z,97569.13
2019-01-08T08:49:16.068Z,97579.67
2019-01-08T08:52:02.965Z,97571.05
2019-01-08T08:54:50.403Z,97581.66
2019-01-08T08:57:37.597Z,97574.57
2019-01-08T09:00:24.984Z,97568.83
2019-01-08T09:03:12.260Z,97567.98
2019-01-08T09:05:59.859Z,97555.03
2019-01-08T09:08:47.261Z,97563.36
2019-01-08T09:11:34.493Z,97569.66
2019-01-08T09:14:21.919Z,97549.56
2019-01-08T09:17:09.246Z,97549.89
2019-01-08T09:19:56.596Z,97546.91
2019-01-08T09:22:43.916Z,97536.14
2019-01-08T09:25:30.745Z,97545.21
2019-01-08T09:28:17.619Z,97543.48
2019-01-08T09:31:04.678Z,97540.17
2019-01-08T09:33:51.767Z,97535.34
2019-01-08T09:36:38.646Z,97536.58
2019-01-08T09:39:25.372Z,97542.07
2019-01-08T09:42:12.452Z,97532.19
2019-01-08T09:44:59.602Z,97529.27
2019-01-08T09:47:46.710Z,97521.40
2019-01-08T09:50:33.724Z,97525.14
2019-01-08T09:53:20.875Z,97510.33
2019-01-08T09:56:08.179Z,97515.14
2019-01-08T09:58:55.243Z,97514.84
2019-01-08T10:01:42.243Z,97511.29
2019-01-08T10:04:29.499Z,97519.51
2019-01-08T10:07:16.564Z,97513.63
2019-01-08T10:10:03.932Z,97507.56
2019-01-08T10:12:51.112Z,97502.63
2019-01-08T10:15:38.155Z,97500.48
2019-01-08T10:18:25.424Z,97491.72
2019-01-08T10:21:12.641Z,97495.55
2019-01-08T10:24:02.049Z,97504.97
2019-01-08T10:26:48.661Z,97493.98
2019-01-08T10:29:35.944Z,97492.91
2019-01-08T10:32:23.338Z,97488.66
2019-01-08T10:35:10.320Z,97482.27
2019-01-08T10:37:57.414Z,97471.44
2019-01-08T10:40:44.765Z,97459.50
2019-01-08T10:43:32.268Z,97473.20
2019-01-08T10:46:19.613Z,97458.81
2019-01-08T10:49:07.176Z,97455.87
2019-01-08T10:51:54.273Z,97450.80
2019-01-08T10:54:41.537Z,97437.01
2019-01-08T10:57:28.688Z,97440.49
2019-01-08T11:00:16.035Z,97439.28
2019-01-08T11:03:03.072Z,97433.86
2019-01-08T11:05:50.219Z,97426.84
2019-01-08T11:08:37.404Z,97410.20
2019-01-08T11:11:24.546Z,97423.02
2019-01-08T11:14:11.582Z,97419.27
2019-01-08T11:16:58.902Z,97420.91
2019-01-08T11:19:46.236Z,97436.33
2019-01-08T11:22:33.052Z,97401.95
2019-01-08T11:25:20.368Z,97407.99
2019-01-08T11:28:07.498Z,97410.39
2019-01-08T11:30:54.746Z,97414.52
2019-01-08T11:33:41.976Z,97403.04
2019-01-08T11:36:29.453Z,97388.64
2019-01-08T11:39:16.777Z,97399.84
2019-01-08T11:42:04.773Z,97393.11
2019-01-08T11:44:51.812Z,97391.04
2019-01-08T11:47:38.647Z,97378.30
2019-01-08T11:50:26.051Z,97389.63
2019-01-08T11:53:12.906Z,97391.24
2019-01-08T11:56:00.014Z,97383.27
2019-01-08T11:58:47.259Z,97392.45
2019-01-08T12:01:34.389Z,97380.95
2019-01-08T12:04:21.481Z,97376.55
2019-01-08T12:07:08.664Z,97365.98
2019-01-08T12:09:55.781Z,97360.08
2019-01-08T12:12:42.961Z,97347.20
2019-01-08T12:15:30.215Z,97347.16
2019-01-08T12:18:17.284Z,97352.70
2019-01-08T12:21:04.406Z,97342.20
2019-01-08T12:23:51.773Z,97357.59
2019-01-08T12:26:38.890Z,97351.23
2019-01-08T12:29:26.169Z,97358.41
2019-01-08T12:32:13.196Z,97360.34
2019-01-08T12:35:00.328Z,97358.88
2019-01-08T12:37:47.303Z,97355.72
2019-01-08T12:40:34.529Z,97339.97
2019-01-08T12:43:22.106Z,97343.86
2019-01-08T12:46:09.189Z,97335.09
2019-01-08T12:48:56.243Z,97334.21
2019-01-08T12:51:43.262Z,97348.51
2019-01-08T12:54:30.552Z,97337.11
2019-01-08T12:57:17.548Z,97340.87
2019-01-08T13:00:06.861Z,97336.38
2019-01-08T13:02:53.991Z,97319.69
2019-01-08T13:05:40.984Z,97324.07
2019-01-08T13:08:28.039Z,97328.77
2019-01-08T13:11:15.560Z,97319.81
2019-01-08T13:14:02.633Z,97323.20
2019-01-08T13:16:49.597Z,97324.06
2019-01-08T13:19:36.679Z,97324.31
2019-01-08T13:22:23.531Z,97323.59
2019-01-08T13:25:11.005Z,97316.09
2019-01-08T13:27:58.312Z,97325.09
2019-01-08T13:30:45.739Z,97326.66
2019-01-08T13:33:32.537Z,97326.98
2019-01-08T13:36:19.873Z,97338.75
2019-01-08T13:39:07.457Z,97346.07
2019-01-08T13:41:54.594Z,97355.22
2019-01-08T13:44:41.806Z,97338.71
2019-01-08T13:47:29.180Z,97340.84
2019-01-08T13:50:16.507Z,97332.73
2019-01-08T13:53:03.901Z,97332.37
2019-01-08T13:55:50.764Z,97345.86
2019-01-08T13:58:38.115Z,97346.28
2019-01-08T14:01:25.215Z,97333.44
2019-01-08T14:04:12.471Z,97345.49
2019-01-08T14:06:59.793Z,97337.11
2019-01-08T14:09:46.941Z,97350.69
2019-01-08T14:12:33.718Z,97345.86
2019-01-08T14:15:21.238Z,97357.41
2019-01-08T14:18:08.808Z,97364.03
2019-01-08T14:20:55.802Z,97357.03
2019-01-08T14:23:43.071Z,97348.81
2019-01-08T14:26:30.223Z,97342.88
2019-01-08T14:29:17.237Z,97334.75
2019-01-08T14:32:04.376Z,97336.01
2019-01-08T14:34:51.757Z,97327.55
2019-01-08T14:37:39.139Z,97347.87
2019-01-08T14:40:26.307Z,97347.25
2019-01-08T14:43:14.332Z,97351.06
2019-01-08T14:46:01.714Z,97344.39
2019-01-08T14:48:49.021Z,97340.97
2019-01-08T14:51:36.281Z,97334.83
2019-01-08T14:54:23.603Z,97340.30
2019-01-08T14:57:11.045Z,97344.20
2019-01-08T14:59:58.548Z,97351.70
2019-01-08T15:02:49.744Z,97342.11
2019-01-08T15:05:34.801Z,97348.56
2019-01-08T15:08:21.704Z,97355.39
2019-01-08T15:11:09.033Z,97363.22
2019-01-08T15:13:56.140Z,97359.70
2019-01-08T15:16:43.880Z,97371.89
2019-01-08T15:19:30.935Z,97367.09
2019-01-08T15:22:18.224Z,97367.23
2019-01-08T15:25:05.160Z,97369.69
2019-01-08T15:27:52.366Z,97378.09
2019-01-08T15:30:39.272Z,97396.97
2019-01-08T15:33:26.758Z,97381.80
2019-01-08T15:36:14.237Z,97382.16
2019-01-08T15:39:01.262Z,97380.29
2019-01-08T15:41:48.368Z,97389.66
2019-01-08T15:44:35.318Z,97390.34
2019-01-08T15:47:22.406Z,97393.05
2019-01-08T15:50:09.535Z,97401.34
2019-01-08T15:52:56.759Z,97393.63
2019-01-08T15:55:43.844Z,97400.17
2019-01-08T15:58:30.858Z,97395.79
2019-01-08T16:01:18.020Z,97390.95
2019-01-08T16:04:05.269Z,97392.94
2019-01-08T16:06:52.404Z,97397.53
2019-01-08T16:09:39.804Z,97389.69
2019-01-08T16:12:27.050Z,97385.94
2019-01-08T16:15:13.963Z,97378.20
2019-01-08T16:18:01.027Z,97376.20
2019-01-08T16:20:48.182Z,97360.80
2019-01-08T16:23:35.553Z,97349.06
2019-01-08T16:26:22.815Z,97358.55
2019-01-08T16:29:10.103Z,97369.47
2019-01-08T16:31:57.238Z,97373.27
2019-01-08T16:34:44.483Z,97373.88
2019-01-08T16:37:31.553Z,97367.54
2019-01-08T16:40:19.215Z,97366.94
2019-01-08T16:43:06.331Z,97377.50
2019-01-08T16:45:53.111Z,97371.11
2019-01-08T16:48:40.364Z,97365.81
2019-01-08T16:51:27.269Z,97365.94
2019-01-08T16:54:14.624Z,97360.31
2019-01-08T16:57:01.982Z,97366.79
2019-01-08T16:59:50.778Z,97362.08
2019-01-08T17:02:37.731Z,97357.57
2019-01-08T17:05:24.829Z,97348.28
2019-01-08T17:08:11.804Z,97357.05
2019-01-08T17:10:58.834Z,97350.30
2019-01-08T17:13:46.222Z,97372.14
2019-01-08T17:16:33.613Z,97362.89
2019-01-08T17:19:20.856Z,97368.31
2019-01-08T17:22:07.872Z,97371.06
2019-01-08T17:24:55.021Z,97375.02
2019-01-08T17:27:41.986Z,97385.23
2019-01-08T17:30:29.181Z,97392.98
2019-01-08T17:33:16.317Z,97403.25
2019-01-08T17:36:03.728Z,97405.12
2019-01-08T17:38:50.779Z,97392.47
2019-01-08T17:41:37.788Z,97397.61
2019-01-08T17:44:24.895Z,97392.14
2019-01-08T17:47:11.956Z,97381.09
2019-01-08T17:49:59.146Z,97377.77
2019-01-08T17:52:46.297Z,97387.23
2019-01-08T17:55:33.627Z,97395.78
2019-01-08T17:58:32.415Z,97401.96
2019-01-08T18:01:22.354Z,97389.83
2019-01-08T18:04:09.830Z,97395.91
2019-01-08T18:06:56.879Z,97402.30
2019-01-08T18:09:44.010Z,97388.00
2019-01-08T18:12:31.450Z,97385.01
2019-01-08T18:15:18.628Z,97391.35
2019-01-08T18:18:05.691Z,97385.03
2019-01-08T18:20:52.581Z,97208.01
2019-01-08T18:23:39.958Z,97382.50
2019-01-08T18:26:27.360Z,97372.89
2019-01-08T18:29:14.747Z,97382.38
2019-01-08T18:32:02.250Z,97380.42
2019-01-08T18:34:49.589Z,97370.33
2019-01-08T18:37:36.822Z,97388.81
2019-01-08T18:40:24.029Z,97379.52
2019-01-08T18:43:14.180Z,97380.16
2019-01-08T18:46:00.167Z,97384.79
2019-01-08T18:48:47.239Z,97389.91
2019-01-08T18:51:34.450Z,97400.14
2019-01-08T18:54:21.615Z,97396.33
2019-01-08T18:57:08.591Z,97391.98
2019-01-08T18:59:55.817Z,97384.84
2019-01-08T19:02:42.940Z,97389.19
2019-01-08T19:05:30.107Z,97390.70
2019-01-08T19:08:17.218Z,97395.55
2019-01-08T19:11:06.496Z,97409.16
2019-01-08T19:13:53.550Z,97419.31
2019-01-08T19:16:40.929Z,97442.31
2019-01-08T19:19:27.846Z,97452.67
2019-01-08T19:22:15.088Z,97467.45
2019-01-08T19:25:02.554Z,97460.25
2019-01-08T19:27:50.108Z,97457.77
2019-01-08T19:30:37.565Z,97452.06
2019-01-08T19:33:24.291Z,97452.15
2019-01-08T19:36:12.571Z,97440.03
2019-01-08T19:38:59.654Z,97439.00
2019-01-08T19:41:47.153Z,97446.55
2019-01-08T19:44:34.250Z,97442.09
2019-01-08T19:47:21.422Z,97443.13
2019-01-08T19:50:09.290Z,97445.42
2019-01-08T19:52:56.600Z,97440.61
2019-01-08T19:55:43.577Z,97449.69
2019-01-08T19:58:30.975Z,97445.44
2019-01-08T20:01:18.257Z,97449.18
2019-01-08T20:04:05.711Z,97443.19
2019-01-08T20:06:52.850Z,97445.98
2019-01-08T20:09:40.216Z,97445.98
2019-01-08T20:12:27.741Z,97440.17
2019-01-08T20:15:15.084Z,97433.99
2019-01-08T20:18:02.270Z,97446.33
2019-01-08T20:20:49.344Z,97435.68
2019-01-08T20:23:36.602Z,97429.32
2019-01-08T20:26:23.590Z,97439.44
2019-01-08T20:29:10.844Z,97426.36
2019-01-08T20:31:57.950Z,97433.63
2019-01-08T20:34:45.050Z,97425.59
2019-01-08T20:37:32.299Z,97421.64
2019-01-08T20:40:19.529Z,97422.83
2019-01-08T20:43:06.861Z,97417.73
2019-01-08T20:45:54.035Z,97414.63
2019-01-08T20:48:41.493Z,97406.23
2019-01-08T20:51:33.247Z,97397.80
2019-01-08T20:54:20.075Z,97385.72
2019-01-08T20:57:09.185Z,97389.53
2019-01-08T20:59:55.966Z,97373.70
2019-01-08T21:02:43.185Z,97379.03
2019-01-08T21:05:30.237Z,97367.33
2019-01-08T21:08:17.346Z,97373.80
2019-01-08T21:11:06.167Z,97361.76
2019-01-08T21:13:53.782Z,97370.16
2019-01-08T21:16:41.067Z,97364.87
2019-01-08T21:19:28.222Z,97368.50
2019-01-08T21:22:15.487Z,97368.71
2019-01-08T21:25:02.570Z,97373.63
2019-01-08T21:27:49.718Z,97375.38
2019-01-08T21:30:37.106Z,97393.56
2019-01-08T21:33:24.149Z,97385.46
2019-01-08T21:36:11.602Z,97395.23
2019-01-08T21:38:58.876Z,97398.17
2019-01-08T21:41:46.183Z,97402.86
2019-01-08T21:44:33.452Z,97401.17
2019-01-08T21:47:20.759Z,97387.56
2019-01-08T21:50:08.360Z,97400.70
2019-01-08T21:52:55.629Z,97398.73
2019-01-08T21:55:43.065Z,97397.20
2019-01-08T21:58:30.392Z,97405.30
2019-01-08T22:01:17.431Z,97408.89
2019-01-08T22:04:04.788Z,97405.25
2019-01-08T22:06:52.113Z,97417.97
2019-01-08T22:09:39.076Z,97413.14
2019-01-08T22:12:25.809Z,97415.89
2019-01-08T22:15:13.378Z,97415.27
2019-01-08T22:18:00.193Z,97415.41
2019-01-08T22:20:47.539Z,97408.80
2019-01-08T22:23:34.880Z,97407.62
2019-01-08T22:26:21.760Z,97412.92
2019-01-08T22:29:08.984Z,97408.33
2019-01-08T22:31:56.336Z,97421.79
2019-01-08T22:34:43.658Z,97416.90
2019-01-08T22:37:30.465Z,97435.25
2019-01-08T22:40:17.986Z,97446.86
2019-01-08T22:43:04.961Z,97438.40
2019-01-08T22:45:52.041Z,97458.67
2019-01-08T22:48:39.397Z,97453.61
2019-01-08T22:51:26.477Z,97471.55
2019-01-08T22:54:14.044Z,97464.70
2019-01-08T22:57:01.489Z,97455.58
2019-01-08T22:59:48.522Z,97447.73
2019-01-08T23:02:35.573Z,97451.34
2019-01-08T23:05:22.711Z,97447.75
2019-01-08T23:08:09.890Z,97449.20
2019-01-08T23:10:57.462Z,97455.39
2019-01-08T23:13:44.591Z,97441.55
2019-01-08T23:16:31.802Z,97435.84
2019-01-08T23:19:19.308Z,97436.33
2019-01-08T23:22:06.892Z,97437.62
2019-01-08T23:24:54.344Z,97435.84
2019-01-08T23:27:41.484Z,97436.99
2019-01-08T23:30:28.703Z,97437.63
2019-01-08T23:33:15.766Z,97444.45
2019-01-08T23:36:02.904Z,97425.89
2019-01-08T23:38:50.040Z,97431.78
2019-01-08T23:41:37.379Z,97444.48
2019-01-08T23:44:24.830Z,97452.15
2019-01-08T23:47:12.239Z,97448.55
2019-01-08T23:49:59.584Z,97456.25
2019-01-08T23:52:55.640Z,97477.58
2019-01-08T23:55:45.929Z,97472.69
2019-01-08T23:58:33.269Z,97472.03
